Terminal Aerodrome Forecast
Issued by NWS Quad Cities IA IL

Home | Current Version | Previous Version | Text Only | Print | Product List | Glossary On
Versions: 1 2 3 4 5 6 7 8 9 10 11 12 13 14 15 16 17 18 19 20 21 22 23
465
FTUS43 KDVN 171441 AAA
TAFMLI
TAF AMD
KMLI 171441Z 1715/1812 26010KT 1SM BR OVC004
      TEMPO 1715/1718 3SM BR OVC005
     FM171800 28009KT 4SM BR OVC006
     FM180100 28007KT 5SM BR BKN020=

USA.gov is the U.S. government's official web portal to all federal, state and local government web resources and services.